sensor_id;sensor_type;location;lat;lon;timestamp;temperature;humidity
12833;DHT22;6483;51.310;4.462;2023-03-17T00:00:42;9.20;40.90
12833;DHT22;6483;51.310;4.462;2023-03-17T00:03:19;9.10;44.40
12833;DHT22;6483;51.310;4.462;2023-03-17T00:05:46;9.10;44.00
12833;DHT22;6483;51.310;4.462;2023-03-17T00:08:33;9.00;44.80
12833;DHT22;6483;51.310;4.462;2023-03-17T00:11:00;10.70;50.20
12833;DHT22;6483;51.310;4.462;2023-03-17T00:13:27;8.80;50.00
12833;DHT22;6483;51.310;4.462;2023-03-17T00:15:57;8.70;54.80
12833;DHT22;6483;51.310;4.462;2023-03-17T00:18:24;8.60;61.70
12833;DHT22;6483;51.310;4.462;2023-03-17T00:20:53;8.60;71.50
12833;DHT22;6483;51.310;4.462;2023-03-17T00:23:23;8.50;73.60
12833;DHT22;6483;51.310;4.462;2023-03-17T00:25:59;8.50;90.50
12833;DHT22;6483;51.310;4.462;2023-03-17T00:28:26;8.40;92.60
12833;DHT22;6483;51.310;4.462;2023-03-17T00:30:57;8.20;95.70
12833;DHT22;6483;51.310;4.462;2023-03-17T00:33:31;8.00;97.70
12833;DHT22;6483;51.310;4.462;2023-03-17T00:35:58;7.90;99.90
12833;DHT22;6483;51.310;4.462;2023-03-17T00:38:28;7.90;99.90
12833;DHT22;6483;51.310;4.462;2023-03-17T00:40:54;7.90;99.90
12833;DHT22;6483;51.310;4.462;2023-03-17T00:43:23;7.90;99.90
12833;DHT22;6483;51.310;4.462;2023-03-17T00:45:49;7.90;99.90
12833;DHT22;6483;51.310;4.462;2023-03-17T00:48:19;7.90;99.90
12833;DHT22;6483;51.310;4.462;2023-03-17T00:50:49;7.80;99.90
12833;DHT22;6483;51.310;4.462;2023-03-17T00:53:17;7.80;99.90
12833;DHT22;6483;51.310;4.462;2023-03-17T00:55:46;7.80;99.90
12833;DHT22;6483;51.310;4.462;2023-03-17T01:00:50;7.80;99.90
12833;DHT22;6483;51.310;4.462;2023-03-17T01:03:16;7.70;99.90
12833;DHT22;6483;51.310;4.462;2023-03-17T01:05:42;7.70;99.90
12833;DHT22;6483;51.310;4.462;2023-03-17T01:08:09;7.70;99.90
12833;DHT22;6483;51.310;4.462;2023-03-17T01:10:35;7.60;99.90
12833;DHT22;6483;51.310;4.462;2023-03-17T01:13:01;7.70;99.90
12833;DHT22;6483;51.310;4.462;2023-03-17T01:15:29;7.70;99.90
12833;DHT22;6483;51.310;4.462;2023-03-17T01:17:56;7.60;99.90
12833;DHT22;6483;51.310;4.462;2023-03-17T01:20:35;7.70;99.90
12833;DHT22;6483;51.310;4.462;2023-03-17T01:23:04;7.70;99.90
12833;DHT22;6483;51.310;4.462;2023-03-17T01:25:30;7.80;99.90
12833;DHT22;6483;51.310;4.462;2023-03-17T01:27:57;7.90;99.90
12833;DHT22;6483;51.310;4.462;2023-03-17T01:30:31;7.90;99.90
12833;DHT22;6483;51.310;4.462;2023-03-17T01:32:57;7.90;99.90
12833;DHT22;6483;51.310;4.462;2023-03-17T01:35:25;7.90;99.90
12833;DHT22;6483;51.310;4.462;2023-03-17T01:37:51;7.90;99.90
12833;DHT22;6483;51.310;4.462;2023-03-17T01:40:20;7.90;99.90
12833;DHT22;6483;51.310;4.462;2023-03-17T01:43:02;7.90;99.90
12833;DHT22;6483;51.310;4.462;2023-03-17T01:48:37;7.90;99.90
12833;DHT22;6483;51.310;4.462;2023-03-17T01:51:05;7.80;99.90
12833;DHT22;6483;51.310;4.462;2023-03-17T01:53:35;7.80;99.90
12833;DHT22;6483;51.310;4.462;2023-03-17T01:56:02;7.70;99.90
12833;DHT22;6483;51.310;4.462;2023-03-17T01:58:29;7.80;99.90
12833;DHT22;6483;51.310;4.462;2023-03-17T02:00:56;7.80;99.90
12833;DHT22;6483;51.310;4.462;2023-03-17T02:03:22;7.90;99.90
12833;DHT22;6483;51.310;4.462;2023-03-17T02:05:50;7.90;99.90
12833;DHT22;6483;51.310;4.462;2023-03-17T02:08:17;7.90;99.90
12833;DHT22;6483;51.310;4.462;2023-03-17T02:10:44;7.90;99.90
12833;DHT22;6483;51.310;4.462;2023-03-17T02:13:14;7.90;99.90
12833;DHT22;6483;51.310;4.462;2023-03-17T02:15:44;8.00;99.90
12833;DHT22;6483;51.310;4.462;2023-03-17T02:18:12;8.00;99.90
12833;DHT22;6483;51.310;4.462;2023-03-17T02:23:16;8.00;99.90
12833;DHT22;6483;51.310;4.462;2023-03-17T02:25:44;8.00;99.90
12833;DHT22;6483;51.310;4.462;2023-03-17T02:28:14;8.00;99.90
12833;DHT22;6483;51.310;4.462;2023-03-17T02:30:42;7.90;99.90
12833;DHT22;6483;51.310;4.462;2023-03-17T02:33:09;7.90;99.90
12833;DHT22;6483;51.310;4.462;2023-03-17T02:35:34;7.80;99.90
12833;DHT22;6483;51.310;4.462;2023-03-17T02:38:07;7.80;99.90
12833;DHT22;6483;51.310;4.462;2023-03-17T02:40:33;7.70;99.90
12833;DHT22;6483;51.310;4.462;2023-03-17T02:42:59;7.90;99.90
12833;DHT22;6483;51.310;4.462;2023-03-17T02:45:27;7.90;99.90
12833;DHT22;6483;51.310;4.462;2023-03-17T02:47:54;7.90;99.90
12833;DHT22;6483;51.310;4.462;2023-03-17T02:50:25;7.90;99.90
12833;DHT22;6483;51.310;4.462;2023-03-17T02:52:53;8.00;99.90
12833;DHT22;6483;51.310;4.462;2023-03-17T02:55:18;7.90;99.90
12833;DHT22;6483;51.310;4.462;2023-03-17T02:57:44;8.00;99.90
12833;DHT22;6483;51.310;4.462;2023-03-17T03:00:12;8.00;99.90
12833;DHT22;6483;51.310;4.462;2023-03-17T03:02:39;8.00;99.90
12833;DHT22;6483;51.310;4.462;2023-03-17T03:05:07;8.00;99.90
12833;DHT22;6483;51.310;4.462;2023-03-17T03:07:36;8.00;99.90
12833;DHT22;6483;51.310;4.462;2023-03-17T03:10:03;8.00;1.00
12833;DHT22;6483;51.310;4.462;2023-03-17T03:12:37;8.00;1.00
12833;DHT22;6483;51.310;4.462;2023-03-17T03:15:05;7.90;1.00
12833;DHT22;6483;51.310;4.462;2023-03-17T03:17:33;7.90;1.00
12833;DHT22;6483;51.310;4.462;2023-03-17T03:19:59;7.80;1.00
12833;DHT22;6483;51.310;4.462;2023-03-17T03:22:25;7.80;1.00
12833;DHT22;6483;51.310;4.462;2023-03-17T03:24:50;7.90;1.00
12833;DHT22;6483;51.310;4.462;2023-03-17T03:27:16;7.90;1.00
12833;DHT22;6483;51.310;4.462;2023-03-17T03:29:45;8.00;1.00
12833;DHT22;6483;51.310;4.462;2023-03-17T03:32:15;8.10;1.00
12833;DHT22;6483;51.310;4.462;2023-03-17T03:34:41;8.20;1.00
12833;DHT22;6483;51.310;4.462;2023-03-17T03:37:09;8.30;1.00
12833;DHT22;6483;51.310;4.462;2023-03-17T03:39:35;8.30;1.00
12833;DHT22;6483;51.310;4.462;2023-03-17T03:42:05;8.40;1.00
12833;DHT22;6483;51.310;4.462;2023-03-17T03:44:35;8.50;1.00
12833;DHT22;6483;51.310;4.462;2023-03-17T03:47:09;8.60;1.00
12833;DHT22;6483;51.310;4.462;2023-03-17T03:49:35;8.50;1.00
12833;DHT22;6483;51.310;4.462;2023-03-17T03:52:03;8.50;1.00
12833;DHT22;6483;51.310;4.462;2023-03-17T03:54:31;8.60;1.00
12833;DHT22;6483;51.310;4.462;2023-03-17T03:56:57;8.60;1.00
12833;DHT22;6483;51.310;4.462;2023-03-17T03:59:23;8.60;1.00
12833;DHT22;6483;51.310;4.462;2023-03-17T04:01:52;8.60;1.00
12833;DHT22;6483;51.310;4.462;2023-03-17T04:04:20;8.60;1.00
12833;DHT22;6483;51.310;4.462;2023-03-17T04:06:47;8.60;1.00
12833;DHT22;6483;51.310;4.462;2023-03-17T04:09:13;8.70;1.00
12833;DHT22;6483;51.310;4.462;2023-03-17T04:11:42;8.70;1.00
12833;DHT22;6483;51.310;4.462;2023-03-17T04:14:09;8.70;99.90
12833;DHT22;6483;51.310;4.462;2023-03-17T04:16:37;8.70;99.90
12833;DHT22;6483;51.310;4.462;2023-03-17T04:19:05;8.60;1.00
12833;DHT22;6483;51.310;4.462;2023-03-17T04:21:34;8.60;1.00
12833;DHT22;6483;51.310;4.462;2023-03-17T04:24:03;8.50;1.00
12833;DHT22;6483;51.310;4.462;2023-03-17T04:26:32;7.00;1.00
12833;DHT22;6483;51.310;4.462;2023-03-17T04:29:00;8.50;1.00
12833;DHT22;6483;51.310;4.462;2023-03-17T04:31:26;8.40;1.00
12833;DHT22;6483;51.310;4.462;2023-03-17T04:33:52;8.30;1.00
12833;DHT22;6483;51.310;4.462;2023-03-17T04:36:19;8.30;1.00
12833;DHT22;6483;51.310;4.462;2023-03-17T04:38:49;8.20;1.00
12833;DHT22;6483;51.310;4.462;2023-03-17T04:41:15;8.10;1.00
12833;DHT22;6483;51.310;4.462;2023-03-17T04:43:41;8.10;1.00
12833;DHT22;6483;51.310;4.462;2023-03-17T04:46:07;8.10;1.00
12833;DHT22;6483;51.310;4.462;2023-03-17T04:48:33;8.20;1.00
12833;DHT22;6483;51.310;4.462;2023-03-17T04:51:00;8.30;1.00
12833;DHT22;6483;51.310;4.462;2023-03-17T04:53:29;8.30;1.00
12833;DHT22;6483;51.310;4.462;2023-03-17T04:55:57;8.50;1.00
12833;DHT22;6483;51.310;4.462;2023-03-17T04:58:26;8.40;1.00
12833;DHT22;6483;51.310;4.462;2023-03-17T05:00:54;8.30;1.00
12833;DHT22;6483;51.310;4.462;2023-03-17T05:03:20;8.30;1.00
12833;DHT22;6483;51.310;4.462;2023-03-17T05:05:49;8.30;1.00
12833;DHT22;6483;51.310;4.462;2023-03-17T05:08:15;8.30;1.00
12833;DHT22;6483;51.310;4.462;2023-03-17T05:10:41;8.30;1.00
12833;DHT22;6483;51.310;4.462;2023-03-17T05:13:11;8.30;1.00
12833;DHT22;6483;51.310;4.462;2023-03-17T05:15:37;8.40;1.00
12833;DHT22;6483;51.310;4.462;2023-03-17T05:18:03;8.40;1.00
12833;DHT22;6483;51.310;4.462;2023-03-17T05:20:28;8.30;1.00
12833;DHT22;6483;51.310;4.462;2023-03-17T05:22:54;8.30;1.00
12833;DHT22;6483;51.310;4.462;2023-03-17T05:25:20;8.20;1.00
12833;DHT22;6483;51.310;4.462;2023-03-17T05:27:46;8.10;1.00
12833;DHT22;6483;51.310;4.462;2023-03-17T05:30:11;8.20;1.00
12833;DHT22;6483;51.310;4.462;2023-03-17T05:32:40;8.20;1.00
12833;DHT22;6483;51.310;4.462;2023-03-17T05:35:12;8.10;1.00
12833;DHT22;6483;51.310;4.462;2023-03-17T05:37:38;8.00;1.00
12833;DHT22;6483;51.310;4.462;2023-03-17T05:40:05;7.80;1.00
12833;DHT22;6483;51.310;4.462;2023-03-17T05:42:32;7.70;1.00
12833;DHT22;6483;51.310;4.462;2023-03-17T05:44:58;7.70;1.00
12833;DHT22;6483;51.310;4.462;2023-03-17T05:47:24;7.60;1.00
12833;DHT22;6483;51.310;4.462;2023-03-17T05:49:51;7.60;1.00
12833;DHT22;6483;51.310;4.462;2023-03-17T05:52:20;7.70;1.00
12833;DHT22;6483;51.310;4.462;2023-03-17T05:54:49;7.70;1.00
12833;DHT22;6483;51.310;4.462;2023-03-17T05:57:16;7.70;1.00
12833;DHT22;6483;51.310;4.462;2023-03-17T05:59:45;7.80;1.00
12833;DHT22;6483;51.310;4.462;2023-03-17T06:02:11;7.90;1.00
12833;DHT22;6483;51.310;4.462;2023-03-17T06:04:44;7.80;1.00
12833;DHT22;6483;51.310;4.462;2023-03-17T06:07:11;7.80;1.00
12833;DHT22;6483;51.310;4.462;2023-03-17T06:09:39;7.70;1.00
12833;DHT22;6483;51.310;4.462;2023-03-17T06:12:05;7.70;1.00
12833;DHT22;6483;51.310;4.462;2023-03-17T06:14:31;7.80;1.00
12833;DHT22;6483;51.310;4.462;2023-03-17T06:17:00;7.80;1.00
12833;DHT22;6483;51.310;4.462;2023-03-17T06:19:28;7.80;1.00
12833;DHT22;6483;51.310;4.462;2023-03-17T06:21:54;7.80;1.00
12833;DHT22;6483;51.310;4.462;2023-03-17T06:24:20;7.80;1.00
12833;DHT22;6483;51.310;4.462;2023-03-17T06:26:46;7.90;1.00
12833;DHT22;6483;51.310;4.462;2023-03-17T06:29:12;8.00;1.00
12833;DHT22;6483;51.310;4.462;2023-03-17T06:31:38;8.00;1.00
12833;DHT22;6483;51.310;4.462;2023-03-17T06:34:05;8.10;1.00
12833;DHT22;6483;51.310;4.462;2023-03-17T06:36:31;8.30;1.00
12833;DHT22;6483;51.310;4.462;2023-03-17T06:38:58;8.30;1.00
12833;DHT22;6483;51.310;4.462;2023-03-17T06:41:24;8.50;1.00
12833;DHT22;6483;51.310;4.462;2023-03-17T06:43:50;8.60;1.00
12833;DHT22;6483;51.310;4.462;2023-03-17T06:46:16;8.70;1.00
12833;DHT22;6483;51.310;4.462;2023-03-17T06:48:42;8.70;1.00
12833;DHT22;6483;51.310;4.462;2023-03-17T06:51:09;8.70;1.00
12833;DHT22;6483;51.310;4.462;2023-03-17T06:53:35;8.70;1.00
12833;DHT22;6483;51.310;4.462;2023-03-17T06:56:02;10.40;1.00
12833;DHT22;6483;51.310;4.462;2023-03-17T06:58:29;8.80;1.00
12833;DHT22;6483;51.310;4.462;2023-03-17T07:00:56;8.90;1.00
12833;DHT22;6483;51.310;4.462;2023-03-17T07:03:23;9.00;1.00
12833;DHT22;6483;51.310;4.462;2023-03-17T07:05:50;9.10;1.00
12833;DHT22;6483;51.310;4.462;2023-03-17T07:08:16;9.20;1.00
12833;DHT22;6483;51.310;4.462;2023-03-17T07:10:42;9.30;1.00
12833;DHT22;6483;51.310;4.462;2023-03-17T07:13:08;9.30;1.00
12833;DHT22;6483;51.310;4.462;2023-03-17T07:15:35;9.40;1.00
12833;DHT22;6483;51.310;4.462;2023-03-17T07:18:03;9.60;99.90
12833;DHT22;6483;51.310;4.462;2023-03-17T07:20:29;9.70;99.90
12833;DHT22;6483;51.310;4.462;2023-03-17T07:22:55;9.80;99.90
12833;DHT22;6483;51.310;4.462;2023-03-17T07:25:21;9.80;99.90
12833;DHT22;6483;51.310;4.462;2023-03-17T07:27:47;9.90;99.90
12833;DHT22;6483;51.310;4.462;2023-03-17T07:30:13;10.10;99.90
12833;DHT22;6483;51.310;4.462;2023-03-17T07:32:43;10.20;99.90
12833;DHT22;6483;51.310;4.462;2023-03-17T07:35:09;10.20;58.90
12833;DHT22;6483;51.310;4.462;2023-03-17T07:37:35;10.30;1.00
12833;DHT22;6483;51.310;4.462;2023-03-17T07:40:01;10.50;1.00
12833;DHT22;6483;51.310;4.462;2023-03-17T07:42:26;10.60;1.00
12833;DHT22;6483;51.310;4.462;2023-03-17T07:44:53;10.70;1.00
12833;DHT22;6483;51.310;4.462;2023-03-17T07:47:19;10.90;1.00
12833;DHT22;6483;51.310;4.462;2023-03-17T07:49:45;11.10;1.00
12833;DHT22;6483;51.310;4.462;2023-03-17T07:52:11;11.20;1.00
12833;DHT22;6483;51.310;4.462;2023-03-17T07:54:37;11.30;1.00
12833;DHT22;6483;51.310;4.462;2023-03-17T07:57:04;11.50;99.90
12833;DHT22;6483;51.310;4.462;2023-03-17T07:59:30;11.60;99.90
12833;DHT22;6483;51.310;4.462;2023-03-17T08:01:56;11.90;1.00
12833;DHT22;6483;51.310;4.462;2023-03-17T08:04:22;12.00;1.00
12833;DHT22;6483;51.310;4.462;2023-03-17T08:06:48;12.10;1.00
12833;DHT22;6483;51.310;4.462;2023-03-17T08:09:14;12.20;1.00
12833;DHT22;6483;51.310;4.462;2023-03-17T08:11:40;12.40;1.00
12833;DHT22;6483;51.310;4.462;2023-03-17T08:14:06;12.30;99.90
12833;DHT22;6483;51.310;4.462;2023-03-17T08:16:32;12.40;99.90
12833;DHT22;6483;51.310;4.462;2023-03-17T08:18:58;12.40;99.90
12833;DHT22;6483;51.310;4.462;2023-03-17T08:21:25;12.50;1.00
12833;DHT22;6483;51.310;4.462;2023-03-17T08:23:53;12.70;1.00
12833;DHT22;6483;51.310;4.462;2023-03-17T08:26:19;12.80;1.00
12833;DHT22;6483;51.310;4.462;2023-03-17T08:28:46;12.80;1.00
12833;DHT22;6483;51.310;4.462;2023-03-17T08:31:19;12.70;99.90
12833;DHT22;6483;51.310;4.462;2023-03-17T08:33:47;12.80;1.00
12833;DHT22;6483;51.310;4.462;2023-03-17T08:36:13;12.90;1.00
12833;DHT22;6483;51.310;4.462;2023-03-17T08:38:40;13.00;5.80
12833;DHT22;6483;51.310;4.462;2023-03-17T08:41:10;13.10;99.90
12833;DHT22;6483;51.310;4.462;2023-03-17T08:43:38;13.30;1.00
12833;DHT22;6483;51.310;4.462;2023-03-17T08:46:19;13.50;99.90
12833;DHT22;6483;51.310;4.462;2023-03-17T08:48:46;13.50;61.20
12833;DHT22;6483;51.310;4.462;2023-03-17T08:51:13;13.50;20.60
12833;DHT22;6483;51.310;4.462;2023-03-17T08:53:39;13.70;1.00
12833;DHT22;6483;51.310;4.462;2023-03-17T08:56:05;13.90;1.00
12833;DHT22;6483;51.310;4.462;2023-03-17T08:58:32;13.90;1.00
12833;DHT22;6483;51.310;4.462;2023-03-17T09:01:00;14.30;99.90
12833;DHT22;6483;51.310;4.462;2023-03-17T09:03:26;14.60;1.00
12833;DHT22;6483;51.310;4.462;2023-03-17T09:05:52;15.20;99.90
12833;DHT22;6483;51.310;4.462;2023-03-17T09:08:19;15.30;1.00
12833;DHT22;6483;51.310;4.462;2023-03-17T09:10:45;15.60;1.00
12833;DHT22;6483;51.310;4.462;2023-03-17T09:13:12;16.10;98.20
12833;DHT22;6483;51.310;4.462;2023-03-17T09:15:38;16.10;1.00
12833;DHT22;6483;51.310;4.462;2023-03-17T09:18:05;15.90;1.00
12833;DHT22;6483;51.310;4.462;2023-03-17T09:20:31;15.80;1.00
12833;DHT22;6483;51.310;4.462;2023-03-17T09:22:58;15.20;1.00
12833;DHT22;6483;51.310;4.462;2023-03-17T09:25:24;15.20;99.90
12833;DHT22;6483;51.310;4.462;2023-03-17T09:27:50;15.10;99.90
12833;DHT22;6483;51.310;4.462;2023-03-17T09:30:16;15.90;1.00
12833;DHT22;6483;51.310;4.462;2023-03-17T09:32:42;16.60;1.00
12833;DHT22;6483;51.310;4.462;2023-03-17T09:35:09;16.90;1.00
12833;DHT22;6483;51.310;4.462;2023-03-17T09:37:36;16.80;1.00
12833;DHT22;6483;51.310;4.462;2023-03-17T09:40:03;16.90;1.00
12833;DHT22;6483;51.310;4.462;2023-03-17T09:43:06;16.70;1.00
12833;DHT22;6483;51.310;4.462;2023-03-17T09:45:38;16.40;1.00
12833;DHT22;6483;51.310;4.462;2023-03-17T09:51:07;15.70;1.00
12833;DHT22;6483;51.310;4.462;2023-03-17T09:53:50;15.50;99.90
12833;DHT22;6483;51.310;4.462;2023-03-17T09:56:19;15.40;99.90
12833;DHT22;6483;51.310;4.462;2023-03-17T09:58:56;15.50;99.90
12833;DHT22;6483;51.310;4.462;2023-03-17T10:01:22;15.50;99.90
12833;DHT22;6483;51.310;4.462;2023-03-17T10:03:48;15.40;1.00
12833;DHT22;6483;51.310;4.462;2023-03-17T10:06:32;15.60;1.00
12833;DHT22;6483;51.310;4.462;2023-03-17T10:12:02;17.10;1.00
12833;DHT22;6483;51.310;4.462;2023-03-17T10:17:21;16.40;1.00
12833;DHT22;6483;51.310;4.462;2023-03-17T10:20:11;16.50;1.00
12833;DHT22;6483;51.310;4.462;2023-03-17T10:22:47;16.60;1.00
12833;DHT22;6483;51.310;4.462;2023-03-17T10:25:23;16.90;1.00
12833;DHT22;6483;51.310;4.462;2023-03-17T10:27:58;17.20;1.00
12833;DHT22;6483;51.310;4.462;2023-03-17T10:30:25;17.70;1.00
12833;DHT22;6483;51.310;4.462;2023-03-17T10:32:55;18.60;99.90
12833;DHT22;6483;51.310;4.462;2023-03-17T10:35:22;18.60;1.00
12833;DHT22;6483;51.310;4.462;2023-03-17T10:37:48;18.00;1.00
12833;DHT22;6483;51.310;4.462;2023-03-17T10:40:28;18.00;1.00
12833;DHT22;6483;51.310;4.462;2023-03-17T10:43:01;18.00;1.00
12833;DHT22;6483;51.310;4.462;2023-03-17T10:45:34;17.90;1.00
12833;DHT22;6483;51.310;4.462;2023-03-17T10:48:07;17.80;99.90
12833;DHT22;6483;51.310;4.462;2023-03-17T10:50:36;18.50;1.00
12833;DHT22;6483;51.310;4.462;2023-03-17T10:55:32;19.00;1.00
12833;DHT22;6483;51.310;4.462;2023-03-17T11:00:36;19.20;1.00
12833;DHT22;6483;51.310;4.462;2023-03-17T11:03:20;19.80;1.00
12833;DHT22;6483;51.310;4.462;2023-03-17T11:06:03;21.20;99.90
12833;DHT22;6483;51.310;4.462;2023-03-17T11:08:48;21.80;99.90
12833;DHT22;6483;51.310;4.462;2023-03-17T11:11:26;20.50;97.10
12833;DHT22;6483;51.310;4.462;2023-03-17T11:14:03;20.50;99.90
12833;DHT22;6483;51.310;4.462;2023-03-17T11:16:31;20.40;99.90
12833;DHT22;6483;51.310;4.462;2023-03-17T11:18:59;20.20;99.90
12833;DHT22;6483;51.310;4.462;2023-03-17T11:21:31;20.00;99.90
12833;DHT22;6483;51.310;4.462;2023-03-17T11:24:10;19.70;99.90
12833;DHT22;6483;51.310;4.462;2023-03-17T11:26:59;19.50;99.90
12833;DHT22;6483;51.310;4.462;2023-03-17T11:35:11;19.40;99.90
12833;DHT22;6483;51.310;4.462;2023-03-17T11:40:33;19.40;99.90
12833;DHT22;6483;51.310;4.462;2023-03-17T11:46:12;19.30;99.90
12833;DHT22;6483;51.310;4.462;2023-03-17T11:49:21;19.60;99.90
12833;DHT22;6483;51.310;4.462;2023-03-17T11:55:11;19.80;99.90
12833;DHT22;6483;51.310;4.462;2023-03-17T11:57:43;19.60;99.90
12833;DHT22;6483;51.310;4.462;2023-03-17T12:00:24;19.30;99.90
12833;DHT22;6483;51.310;4.462;2023-03-17T12:05:44;20.00;78.10
12833;DHT22;6483;51.310;4.462;2023-03-17T12:08:27;20.80;59.90
12833;DHT22;6483;51.310;4.462;2023-03-17T12:11:00;21.90;1.00
12833;DHT22;6483;51.310;4.462;2023-03-17T12:13:32;22.30;1.00
12833;DHT22;6483;51.310;4.462;2023-03-17T12:16:11;22.40;1.00
12833;DHT22;6483;51.310;4.462;2023-03-17T12:18:39;22.70;1.00
12833;DHT22;6483;51.310;4.462;2023-03-17T12:21:24;23.60;1.00
12833;DHT22;6483;51.310;4.462;2023-03-17T12:23:59;23.40;1.00
12833;DHT22;6483;51.310;4.462;2023-03-17T12:26:36;23.00;1.00
12833;DHT22;6483;51.310;4.462;2023-03-17T12:31:47;23.30;1.00
12833;DHT22;6483;51.310;4.462;2023-03-17T12:34:51;23.70;1.00
12833;DHT22;6483;51.310;4.462;2023-03-17T12:37:18;23.30;1.00
12833;DHT22;6483;51.310;4.462;2023-03-17T12:39:55;23.50;1.00
12833;DHT22;6483;51.310;4.462;2023-03-17T12:42:49;23.60;1.00
12833;DHT22;6483;51.310;4.462;2023-03-17T12:49:00;25.70;1.00
12833;DHT22;6483;51.310;4.462;2023-03-17T12:54:23;25.50;1.00
12833;DHT22;6483;51.310;4.462;2023-03-17T12:56:51;25.70;1.00
12833;DHT22;6483;51.310;4.462;2023-03-17T12:59:20;24.70;1.00
12833;DHT22;6483;51.310;4.462;2023-03-17T13:02:03;24.10;1.00
12833;DHT22;6483;51.310;4.462;2023-03-17T13:04:32;23.80;1.00
12833;DHT22;6483;51.310;4.462;2023-03-17T13:07:16;23.70;1.00
12833;DHT22;6483;51.310;4.462;2023-03-17T13:24:18;28.20;1.00
12833;DHT22;6483;51.310;4.462;2023-03-17T13:29:38;27.60;1.00
12833;DHT22;6483;51.310;4.462;2023-03-17T13:35:36;27.40;1.00
12833;DHT22;6483;51.310;4.462;2023-03-17T13:46:43;29.10;1.00
12833;DHT22;6483;51.310;4.462;2023-03-17T13:49:28;29.30;1.00
12833;DHT22;6483;51.310;4.462;2023-03-17T13:52:02;28.70;1.00
12833;DHT22;6483;51.310;4.462;2023-03-17T13:54:47;29.00;1.00
12833;DHT22;6483;51.310;4.462;2023-03-17T14:00:20;29.20;1.00
12833;DHT22;6483;51.310;4.462;2023-03-17T14:02:47;29.30;1.00
12833;DHT22;6483;51.310;4.462;2023-03-17T14:05:26;27.10;1.00
12833;DHT22;6483;51.310;4.462;2023-03-17T14:07:59;25.20;1.00
12833;DHT22;6483;51.310;4.462;2023-03-17T14:10:29;24.80;1.00
12833;DHT22;6483;51.310;4.462;2023-03-17T14:13:24;24.30;1.00
12833;DHT22;6483;51.310;4.462;2023-03-17T14:18:35;24.80;1.00
12833;DHT22;6483;51.310;4.462;2023-03-17T14:21:05;25.30;1.00
12833;DHT22;6483;51.310;4.462;2023-03-17T14:23:37;25.90;1.00
12833;DHT22;6483;51.310;4.462;2023-03-17T14:26:23;26.00;1.00
12833;DHT22;6483;51.310;4.462;2023-03-17T14:28:50;26.70;1.00
12833;DHT22;6483;51.310;4.462;2023-03-17T14:31:25;27.30;1.00
12833;DHT22;6483;51.310;4.462;2023-03-17T14:33:55;27.30;1.00
12833;DHT22;6483;51.310;4.462;2023-03-17T14:36:22;28.60;1.00
12833;DHT22;6483;51.310;4.462;2023-03-17T14:38:53;28.30;1.00
12833;DHT22;6483;51.310;4.462;2023-03-17T14:41:23;30.50;1.00
12833;DHT22;6483;51.310;4.462;2023-03-17T14:43:57;31.10;1.00
12833;DHT22;6483;51.310;4.462;2023-03-17T14:46:33;32.20;1.00
12833;DHT22;6483;51.310;4.462;2023-03-17T14:49:18;32.50;1.00
12833;DHT22;6483;51.310;4.462;2023-03-17T14:51:51;32.00;1.00
12833;DHT22;6483;51.310;4.462;2023-03-17T14:54:26;30.80;1.00
12833;DHT22;6483;51.310;4.462;2023-03-17T14:57:15;29.50;1.00
12833;DHT22;6483;51.310;4.462;2023-03-17T14:59:43;28.50;1.00
12833;DHT22;6483;51.310;4.462;2023-03-17T15:02:33;26.70;1.00
12833;DHT22;6483;51.310;4.462;2023-03-17T15:05:39;25.10;1.00
12833;DHT22;6483;51.310;4.462;2023-03-17T15:08:29;23.70;1.00
12833;DHT22;6483;51.310;4.462;2023-03-17T15:11:03;22.70;1.00
12833;DHT22;6483;51.310;4.462;2023-03-17T15:13:34;22.10;1.00
12833;DHT22;6483;51.310;4.462;2023-03-17T15:16:24;21.60;1.00
12833;DHT22;6483;51.310;4.462;2023-03-17T15:19:16;21.10;1.00
12833;DHT22;6483;51.310;4.462;2023-03-17T15:21:43;20.80;1.00
12833;DHT22;6483;51.310;4.462;2023-03-17T15:24:29;20.70;1.00
12833;DHT22;6483;51.310;4.462;2023-03-17T15:27:17;20.70;1.00
12833;DHT22;6483;51.310;4.462;2023-03-17T15:29:43;20.60;1.00
12833;DHT22;6483;51.310;4.462;2023-03-17T15:32:29;20.50;1.00
12833;DHT22;6483;51.310;4.462;2023-03-17T15:34:56;20.40;1.00
12833;DHT22;6483;51.310;4.462;2023-03-17T15:37:28;20.40;1.00
12833;DHT22;6483;51.310;4.462;2023-03-17T15:39:57;20.10;1.00
12833;DHT22;6483;51.310;4.462;2023-03-17T15:42:29;19.70;1.00
12833;DHT22;6483;51.310;4.462;2023-03-17T15:45:02;19.50;1.00
12833;DHT22;6483;51.310;4.462;2023-03-17T15:47:32;19.20;1.00
12833;DHT22;6483;51.310;4.462;2023-03-17T15:50:16;18.80;1.00
12833;DHT22;6483;51.310;4.462;2023-03-17T15:52:43;18.60;1.00
12833;DHT22;6483;51.310;4.462;2023-03-17T15:55:20;18.40;1.00
12833;DHT22;6483;51.310;4.462;2023-03-17T15:57:50;18.20;1.00
12833;DHT22;6483;51.310;4.462;2023-03-17T16:00:18;18.10;1.00
12833;DHT22;6483;51.310;4.462;2023-03-17T16:02:46;18.00;1.00
12833;DHT22;6483;51.310;4.462;2023-03-17T16:05:32;17.90;1.00
12833;DHT22;6483;51.310;4.462;2023-03-17T16:08:00;17.80;1.00
12833;DHT22;6483;51.310;4.462;2023-03-17T16:10:30;17.80;1.00
12833;DHT22;6483;51.310;4.462;2023-03-17T16:12:57;17.70;1.00
12833;DHT22;6483;51.310;4.462;2023-03-17T16:15:28;17.60;1.00
12833;DHT22;6483;51.310;4.462;2023-03-17T16:18:01;17.60;24.30
12833;DHT22;6483;51.310;4.462;2023-03-17T16:20:40;17.60;42.10
12833;DHT22;6483;51.310;4.462;2023-03-17T16:23:16;17.60;44.10
12833;DHT22;6483;51.310;4.462;2023-03-17T16:25:43;17.60;79.10
12833;DHT22;6483;51.310;4.462;2023-03-17T16:28:24;17.50;47.20
12833;DHT22;6483;51.310;4.462;2023-03-17T16:30:52;17.50;60.20
12833;DHT22;6483;51.310;4.462;2023-03-17T16:35:51;17.30;1.00
12833;DHT22;6483;51.310;4.462;2023-03-17T16:38:23;17.30;1.00
12833;DHT22;6483;51.310;4.462;2023-03-17T16:40:54;17.20;1.00
12833;DHT22;6483;51.310;4.462;2023-03-17T16:45:52;17.10;1.00
12833;DHT22;6483;51.310;4.462;2023-03-17T16:48:18;17.00;1.00
12833;DHT22;6483;51.310;4.462;2023-03-17T16:50:45;17.10;2.40
12833;DHT22;6483;51.310;4.462;2023-03-17T16:53:10;17.00;1.00
12833;DHT22;6483;51.310;4.462;2023-03-17T16:55:38;16.90;2.40
12833;DHT22;6483;51.310;4.462;2023-03-17T16:58:30;16.90;14.40
12833;DHT22;6483;51.310;4.462;2023-03-17T17:01:00;16.90;44.80
12833;DHT22;6483;51.310;4.462;2023-03-17T17:03:27;16.80;60.50
12833;DHT22;6483;51.310;4.462;2023-03-17T17:05:53;16.70;99.90
12833;DHT22;6483;51.310;4.462;2023-03-17T17:08:19;16.70;99.90
12833;DHT22;6483;51.310;4.462;2023-03-17T17:10:51;16.60;99.90
12833;DHT22;6483;51.310;4.462;2023-03-17T17:13:16;16.60;99.90
12833;DHT22;6483;51.310;4.462;2023-03-17T17:15:45;16.50;99.90
12833;DHT22;6483;51.310;4.462;2023-03-17T17:18:19;16.50;99.90
12833;DHT22;6483;51.310;4.462;2023-03-17T17:20:50;16.50;99.90
12833;DHT22;6483;51.310;4.462;2023-03-17T17:23:25;16.50;99.90
12833;DHT22;6483;51.310;4.462;2023-03-17T17:25:52;16.50;99.90
12833;DHT22;6483;51.310;4.462;2023-03-17T17:28:22;16.40;99.90
12833;DHT22;6483;51.310;4.462;2023-03-17T17:30:49;16.30;99.90
12833;DHT22;6483;51.310;4.462;2023-03-17T17:33:19;16.30;99.90
12833;DHT22;6483;51.310;4.462;2023-03-17T17:35:46;16.40;99.90
12833;DHT22;6483;51.310;4.462;2023-03-17T17:38:21;16.30;99.90
12833;DHT22;6483;51.310;4.462;2023-03-17T17:40:55;16.30;99.90
12833;DHT22;6483;51.310;4.462;2023-03-17T17:43:24;16.30;99.90
12833;DHT22;6483;51.310;4.462;2023-03-17T17:45:51;16.30;99.90
12833;DHT22;6483;51.310;4.462;2023-03-17T17:48:22;16.30;99.90
12833;DHT22;6483;51.310;4.462;2023-03-17T17:50:49;16.10;99.90